createdAt,value
2018-01-20T00:00:51.643Z,1.37
2018-01-20T00:01:51.726Z,1.35
2018-01-20T00:02:51.920Z,1.36
2018-01-20T00:03:51.612Z,1.34
2018-01-20T00:04:52.302Z,1.34
2018-01-20T00:05:51.689Z,1.33
2018-01-20T00:06:51.744Z,1.38
2018-01-20T00:07:51.807Z,1.35
2018-01-20T00:08:51.687Z,1.36
2018-01-20T00:09:51.860Z,1.35
2018-01-20T00:10:51.627Z,1.33
2018-01-20T00:11:52.467Z,1.34
2018-01-20T00:12:52.167Z,1.36
2018-01-20T00:13:51.522Z,1.34
2018-01-20T00:14:52.719Z,1.34
2018-01-20T00:15:51.709Z,1.34
2018-01-20T00:16:51.791Z,1.32
2018-01-20T00:17:51.887Z,1.32
2018-01-20T00:18:51.697Z,1.3
2018-01-20T00:19:51.635Z,1.32
2018-01-20T00:20:51.547Z,1.28
2018-01-20T00:21:52.950Z,1.3
2018-01-20T00:22:52.529Z,1.33
2018-01-20T00:23:53.494Z,1.37
2018-01-20T00:24:51.691Z,1.38
2018-01-20T00:25:51.585Z,1.33
2018-01-20T00:26:51.574Z,1.31
2018-01-20T00:27:52.813Z,1.38
2018-01-20T00:28:51.792Z,1.34
2018-01-20T00:29:53.163Z,1.4
2018-01-20T00:30:51.806Z,1.35
2018-01-20T00:31:52.566Z,1.34
2018-01-20T00:32:52.112Z,1.41
2018-01-20T00:33:51.674Z,1.39
2018-01-20T00:34:51.958Z,1.37
2018-01-20T00:35:51.949Z,1.4
2018-01-20T00:36:51.963Z,1.39
2018-01-20T00:37:53.458Z,1.43
2018-01-20T00:38:52.221Z,1.43
2018-01-20T00:39:51.758Z,1.46
2018-01-20T00:40:52.630Z,1.43
2018-01-20T00:41:51.989Z,1.47
2018-01-20T00:42:51.600Z,1.46
2018-01-20T00:43:51.644Z,1.52
2018-01-20T00:44:51.798Z,1.53
2018-01-20T00:45:51.608Z,1.42
2018-01-20T00:46:51.630Z,1.51
2018-01-20T00:47:51.636Z,1.49
2018-01-20T00:48:51.878Z,1.5
2018-01-20T00:49:52.432Z,1.52
2018-01-20T00:50:51.536Z,1.49
2018-01-20T00:51:51.714Z,1.48
2018-01-20T00:52:51.619Z,1.49
2018-01-20T00:53:51.677Z,1.51
2018-01-20T00:54:52.474Z,1.48
2018-01-20T00:55:52.640Z,1.49
2018-01-20T00:56:52.927Z,1.52
2018-01-20T00:57:51.651Z,1.48
2018-01-20T00:58:52.915Z,1.48
2018-01-20T00:59:51.889Z,1.51
2018-01-20T01:00:52.725Z,1.52
2018-01-20T01:01:51.663Z,1.54
2018-01-20T01:02:51.772Z,1.56
2018-01-20T01:03:52.107Z,1.56
2018-01-20T01:04:51.832Z,1.51
2018-01-20T01:05:51.892Z,1.5
2018-01-20T01:06:51.987Z,1.55
2018-01-20T01:07:51.754Z,1.49
2018-01-20T01:08:52.102Z,1.51
2018-01-20T01:09:51.910Z,1.5
2018-01-20T01:10:52.708Z,1.53
2018-01-20T01:11:51.754Z,1.52
2018-01-20T01:12:51.819Z,1.51
2018-01-20T01:13:51.740Z,1.52
2018-01-20T01:14:51.688Z,1.5
2018-01-20T01:15:52.574Z,1.46
2018-01-20T01:16:52.086Z,1.48
2018-01-20T01:17:52.256Z,1.48
2018-01-20T01:18:52.085Z,1.52
2018-01-20T01:19:51.811Z,1.43
2018-01-20T01:20:51.776Z,1.48
2018-01-20T01:21:52.952Z,1.51
2018-01-20T01:22:51.690Z,1.48
2018-01-20T01:23:51.674Z,1.53
2018-01-20T01:24:51.882Z,1.53
2018-01-20T01:25:52.327Z,1.51
2018-01-20T01:26:50.783Z,1.49
2018-01-20T01:27:51.661Z,1.48
2018-01-20T01:28:50.935Z,1.49
2018-01-20T01:29:51.377Z,1.51
2018-01-20T01:30:50.711Z,1.47
2018-01-20T01:31:51.028Z,1.47
2018-01-20T01:32:50.874Z,1.47
2018-01-20T01:33:51.713Z,1.48
2018-01-20T01:34:50.842Z,1.46
2018-01-20T01:35:50.754Z,1.48
2018-01-20T01:36:50.755Z,1.47
2018-01-20T01:37:52.034Z,1.49
2018-01-20T01:38:51.815Z,1.5
2018-01-20T01:39:50.824Z,1.46
2018-01-20T01:40:50.986Z,1.44
2018-01-20T01:41:51.168Z,1.43
2018-01-20T01:42:51.870Z,1.45
2018-01-20T01:43:50.759Z,1.47
2018-01-20T01:44:50.818Z,1.4
2018-01-20T01:45:50.681Z,1.44
2018-01-20T01:46:51.607Z,1.45
2018-01-20T01:47:51.199Z,1.45
2018-01-20T01:48:50.821Z,1.47
2018-01-20T01:49:50.769Z,1.42
2018-01-20T01:50:50.776Z,1.45
2018-01-20T01:51:51.830Z,1.44
2018-01-20T01:52:51.853Z,1.48
2018-01-20T01:53:50.776Z,1.43
2018-01-20T01:54:50.951Z,1.43
2018-01-20T01:55:50.759Z,1.43
2018-01-20T01:56:50.902Z,1.43
2018-01-20T01:57:50.837Z,1.45
2018-01-20T01:58:50.983Z,1.45
2018-01-20T01:59:51.037Z,1.44
2018-01-20T02:00:50.804Z,1.48
2018-01-20T02:01:50.727Z,1.45
2018-01-20T02:02:51.259Z,1.45
2018-01-20T02:03:50.918Z,1.43
2018-01-20T02:04:52.264Z,1.42
2018-01-20T02:05:50.872Z,1.41
2018-01-20T02:06:51.273Z,1.4
2018-01-20T02:07:51.035Z,1.4
2018-01-20T02:08:50.790Z,1.39
2018-01-20T02:09:52.245Z,1.42
2018-01-20T02:10:50.807Z,1.39
2018-01-20T02:11:50.758Z,1.38
2018-01-20T02:12:50.819Z,1.38
2018-01-20T02:13:51.086Z,1.37
2018-01-20T02:14:50.830Z,1.36
2018-01-20T02:15:51.710Z,1.38
2018-01-20T02:16:51.101Z,1.38
2018-01-20T02:17:51.080Z,1.37
2018-01-20T02:18:50.800Z,1.35
2018-01-20T02:19:51.060Z,1.33
2018-01-20T02:20:51.811Z,1.33
2018-01-20T02:21:50.869Z,1.31
2018-01-20T02:22:51.884Z,1.32
2018-01-20T02:23:51.346Z,1.31
2018-01-20T02:24:50.840Z,1.29
2018-01-20T02:25:50.951Z,1.3
2018-01-20T02:26:51.652Z,1.29
2018-01-20T02:27:51.740Z,1.29
2018-01-20T02:28:50.813Z,1.28
2018-01-20T02:29:52.976Z,1.27
2018-01-20T02:30:51.354Z,1.24
2018-01-20T02:31:50.760Z,1.23
2018-01-20T02:32:51.833Z,1.24
2018-01-20T02:33:50.880Z,1.22
2018-01-20T02:34:50.924Z,1.21
2018-01-20T02:35:50.762Z,1.26
2018-01-20T02:36:51.188Z,1.22
2018-01-20T02:37:51.149Z,1.24
2018-01-20T02:38:52.110Z,1.23
2018-01-20T02:39:50.901Z,1.23
2018-01-20T02:40:50.829Z,1.15
2018-01-20T02:41:51.091Z,1.14
2018-01-20T02:42:51.290Z,1.17
2018-01-20T02:43:51.170Z,1.2
2018-01-20T02:44:51.765Z,1.19
2018-01-20T02:45:50.844Z,1.18
2018-01-20T02:46:50.927Z,1.18
2018-01-20T02:47:50.870Z,1.17
2018-01-20T02:48:50.969Z,1.16
2018-01-20T02:49:50.840Z,1.15
2018-01-20T02:50:51.685Z,1.2
2018-01-20T02:51:50.861Z,1.2
2018-01-20T02:52:50.829Z,1.23
2018-01-20T02:53:52.102Z,1.23
2018-01-20T02:54:51.769Z,1.25
2018-01-20T02:55:51.921Z,1.26
2018-01-20T02:56:50.861Z,1.29
2018-01-20T02:57:51.054Z,1.28
2018-01-20T02:58:52.629Z,1.33
2018-01-20T02:59:50.887Z,1.33
2018-01-20T03:00:51.593Z,1.33
2018-01-20T03:01:51.122Z,1.31
2018-01-20T03:02:51.016Z,1.26
2018-01-20T03:03:50.867Z,1.22
2018-01-20T03:04:51.196Z,1.1
2018-01-20T03:05:51.977Z,1.07
2018-01-20T03:06:50.888Z,1.01
2018-01-20T03:07:50.850Z,0.99
2018-01-20T03:08:51.083Z,1.03
2018-01-20T03:09:51.455Z,1.01
2018-01-20T03:10:50.868Z,0.88
2018-01-20T03:11:52.068Z,0.9
2018-01-20T03:12:51.091Z,0.89
2018-01-20T03:13:50.964Z,0.98
2018-01-20T03:14:50.942Z,0.94
2018-01-20T03:15:52.450Z,0.94
2018-01-20T03:16:51.538Z,0.95
2018-01-20T03:17:50.808Z,1.02
2018-01-20T03:18:50.809Z,1.01
2018-01-20T03:19:51.973Z,1.01
2018-01-20T03:20:50.814Z,1.03
2018-01-20T03:21:51.492Z,1.07
2018-01-20T03:22:50.869Z,1.01
2018-01-20T03:23:50.787Z,1.04
2018-01-20T03:24:51.879Z,1.06
2018-01-20T03:25:51.008Z,1.12
2018-01-20T03:26:50.938Z,1.06
2018-01-20T03:27:50.944Z,1.13
2018-01-20T03:28:51.235Z,1.09
2018-01-20T03:29:51.376Z,1.13
2018-01-20T03:30:50.913Z,1.13
2018-01-20T03:31:50.912Z,1.13
2018-01-20T03:32:51.111Z,1.11
2018-01-20T03:33:51.576Z,1.14
2018-01-20T03:34:52.938Z,1.16
2018-01-20T03:35:52.353Z,1.14
2018-01-20T03:36:50.943Z,1.16
2018-01-20T03:37:51.022Z,1.2
2018-01-20T03:38:52.005Z,1.17
2018-01-20T03:39:51.016Z,1.2
2018-01-20T03:40:51.542Z,1.27
2018-01-20T03:41:50.926Z,1.24
2018-01-20T03:42:50.974Z,1.3
2018-01-20T03:43:51.171Z,1.26
2018-01-20T03:44:52.022Z,1.3
2018-01-20T03:45:51.158Z,1.31
2018-01-20T03:46:50.916Z,1.26
2018-01-20T03:47:50.888Z,1.27
2018-01-20T03:48:50.970Z,1.26
2018-01-20T03:49:51.806Z,1.26
2018-01-20T03:50:50.894Z,1.29
2018-01-20T03:51:51.583Z,1.28
2018-01-20T03:52:51.764Z,1.36
2018-01-20T03:53:51.846Z,1.37
2018-01-20T03:54:51.362Z,1.37
2018-01-20T03:55:52.275Z,1.35
2018-01-20T03:56:52.008Z,1.38
2018-01-20T03:57:51.167Z,1.33
2018-01-20T03:58:51.782Z,1.36
2018-01-20T03:59:51.088Z,1.36
2018-01-20T04:00:51.231Z,1.35
2018-01-20T04:01:52.156Z,1.32
2018-01-20T04:02:51.079Z,1.38
2018-01-20T04:03:51.159Z,1.31
2018-01-20T04:04:51.232Z,1.34
2018-01-20T04:05:51.040Z,1.37
2018-01-20T04:06:50.965Z,1.37
2018-01-20T04:07:51.779Z,1.36
2018-01-20T04:08:50.847Z,1.32
2018-01-20T04:09:50.973Z,1.36
2018-01-20T04:10:50.952Z,1.32
2018-01-20T04:11:51.888Z,1.34
2018-01-20T04:12:51.021Z,1.35
2018-01-20T04:13:51.281Z,1.37
2018-01-20T04:14:51.212Z,1.36
2018-01-20T04:15:51.192Z,1.3
2018-01-20T04:16:50.905Z,1.37
2018-01-20T04:17:50.883Z,1.32
2018-01-20T04:18:50.905Z,1.32
2018-01-20T04:19:50.910Z,1.31
2018-01-20T04:20:51.246Z,1.34
2018-01-20T04:21:51.225Z,1.37
2018-01-20T04:22:51.980Z,1.37
2018-01-20T04:23:52.079Z,1.35
2018-01-20T04:24:50.880Z,1.37
2018-01-20T04:25:51.134Z,1.35
2018-01-20T04:26:51.154Z,1.38
2018-01-20T04:27:52.252Z,1.4
2018-01-20T04:28:51.796Z,1.36
2018-01-20T04:29:51.016Z,1.36
2018-01-20T04:30:51.572Z,1.42
2018-01-20T04:31:51.738Z,1.41
2018-01-20T04:32:50.981Z,1.42
2018-01-20T04:33:52.035Z,1.42
2018-01-20T04:34:51.068Z,1.43
2018-01-20T04:35:51.094Z,1.41
2018-01-20T04:36:51.880Z,1.41
2018-01-20T04:37:50.960Z,1.44
2018-01-20T04:38:51.124Z,1.4
2018-01-20T04:39:50.961Z,1.46
2018-01-20T04:40:51.082Z,1.44
2018-01-20T04:41:51.165Z,1.45
2018-01-20T04:42:52.456Z,1.44
2018-01-20T04:43:52.694Z,1.4
2018-01-20T04:44:51.268Z,1.45
2018-01-20T04:45:51.442Z,1.46
2018-01-20T04:46:50.961Z,1.43
2018-01-20T04:47:51.223Z,1.46
2018-01-20T04:48:51.652Z,1.49
2018-01-20T04:49:51.263Z,1.48
2018-01-20T04:50:51.081Z,1.46
2018-01-20T04:51:50.951Z,1.42
2018-01-20T04:52:51.050Z,1.43
2018-01-20T04:53:51.145Z,1.46
2018-01-20T04:54:50.939Z,1.49
2018-01-20T04:55:51.948Z,1.45
2018-01-20T04:56:51.465Z,1.47
2018-01-20T04:57:51.175Z,1.49
2018-01-20T04:58:51.132Z,1.43
2018-01-20T04:59:51.262Z,1.45
2018-01-20T05:00:51.469Z,1.47
2018-01-20T05:01:51.070Z,1.5
2018-01-20T05:02:52.819Z,1.48
2018-01-20T05:03:52.812Z,1.44
2018-01-20T05:04:51.332Z,1.45
2018-01-20T05:05:50.925Z,1.46
2018-01-20T05:06:51.278Z,1.46
2018-01-20T05:07:51.867Z,1.48
2018-01-20T05:08:50.984Z,1.46
2018-01-20T05:09:51.473Z,1.47
2018-01-20T05:10:52.145Z,1.49
2018-01-20T05:11:51.108Z,1.49
2018-01-20T05:12:51.572Z,1.41
2018-01-20T05:13:51.985Z,1.45
2018-01-20T05:14:50.931Z,1.43
2018-01-20T05:15:51.936Z,1.42
2018-01-20T05:16:51.501Z,1.42
2018-01-20T05:17:51.114Z,1.42
2018-01-20T05:18:51.888Z,1.42
2018-01-20T05:19:51.035Z,1.41
2018-01-20T05:20:51.044Z,1.37
2018-01-20T05:21:51.702Z,1.4
2018-01-20T05:22:51.968Z,1.39
2018-01-20T05:23:51.134Z,1.39
2018-01-20T05:24:51.581Z,1.37
2018-01-20T05:25:51.464Z,1.37
2018-01-20T05:26:51.460Z,1.37
2018-01-20T05:27:51.172Z,1.41
2018-01-20T05:28:51.243Z,1.4
2018-01-20T05:29:51.071Z,1.44
2018-01-20T05:30:51.125Z,1.45
2018-01-20T05:31:52.198Z,1.51
2018-01-20T05:32:51.139Z,1.47
2018-01-20T05:33:52.167Z,1.47
2018-01-20T05:34:51.722Z,1.5
2018-01-20T05:35:51.162Z,1.5
2018-01-20T05:36:51.148Z,1.51
2018-01-20T05:37:51.149Z,1.5
2018-01-20T05:38:51.310Z,1.54
2018-01-20T05:39:51.393Z,1.55
2018-01-20T05:40:51.251Z,1.58
2018-01-20T05:41:51.486Z,1.56
2018-01-20T05:42:51.310Z,1.55
2018-01-20T05:43:51.500Z,1.58
2018-01-20T05:44:51.234Z,1.59
2018-01-20T05:45:51.458Z,1.57
2018-01-20T05:46:51.137Z,1.62
2018-01-20T05:47:52.644Z,1.63
2018-01-20T05:48:52.629Z,1.62
2018-01-20T05:49:51.150Z,1.62
2018-01-20T05:50:51.875Z,1.63
2018-01-20T05:51:51.400Z,1.63
2018-01-20T05:52:51.946Z,1.62
2018-01-20T05:53:52.181Z,1.62
2018-01-20T05:54:51.589Z,1.63
2018-01-20T05:55:51.147Z,1.66
2018-01-20T05:56:51.171Z,1.65
2018-01-20T05:57:52.600Z,1.63
2018-01-20T05:58:51.227Z,1.62
2018-01-20T05:59:51.213Z,1.6
2018-01-20T06:00:51.326Z,1.61
2018-01-20T06:01:51.158Z,1.6
2018-01-20T06:02:51.109Z,1.58
2018-01-20T06:03:51.135Z,1.57
2018-01-20T06:04:51.184Z,1.61
2018-01-20T06:05:51.138Z,1.6
2018-01-20T06:06:51.114Z,1.61
2018-01-20T06:07:51.311Z,1.66
2018-01-20T06:08:51.854Z,1.6
2018-01-20T06:09:52.513Z,1.65
2018-01-20T06:10:51.431Z,1.64
2018-01-20T06:11:51.190Z,1.66
2018-01-20T06:12:51.792Z,1.65
2018-01-20T06:13:51.033Z,1.66
2018-01-20T06:14:51.353Z,1.66
2018-01-20T06:15:51.072Z,1.66
2018-01-20T06:16:51.834Z,1.68
2018-01-20T06:17:51.331Z,1.65
2018-01-20T06:18:52.667Z,1.7
2018-01-20T06:19:53.694Z,1.69
2018-01-20T06:20:53.271Z,1.72
2018-01-20T06:21:52.839Z,1.73
2018-01-20T06:22:51.462Z,1.73
2018-01-20T06:23:51.245Z,1.73
2018-01-20T06:24:52.900Z,1.73
2018-01-20T06:25:51.356Z,1.75
2018-01-20T06:26:51.965Z,1.78
2018-01-20T06:27:52.602Z,1.8
2018-01-20T06:28:52.301Z,1.78
2018-01-20T06:29:52.055Z,1.73
2018-01-20T06:30:51.253Z,1.77
2018-01-20T06:31:51.237Z,1.72
2018-01-20T06:32:51.202Z,1.73
2018-01-20T06:33:51.272Z,1.75
2018-01-20T06:34:52.023Z,1.76
2018-01-20T06:35:52.039Z,1.8
2018-01-20T06:36:51.151Z,1.8
2018-01-20T06:37:52.064Z,1.84
2018-01-20T06:38:51.896Z,1.86
2018-01-20T06:39:51.247Z,1.84
2018-01-20T06:40:51.226Z,1.86
2018-01-20T06:41:51.309Z,1.83
2018-01-20T06:42:51.279Z,1.84
2018-01-20T06:43:51.473Z,1.85
2018-01-20T06:44:51.476Z,1.87
2018-01-20T06:45:52.346Z,1.89
2018-01-20T06:46:51.234Z,1.81
2018-01-20T06:47:52.097Z,1.84
2018-01-20T06:48:51.153Z,1.84
2018-01-20T06:49:51.276Z,1.83
2018-01-20T06:50:51.690Z,1.82
2018-01-20T06:51:51.267Z,1.85
2018-01-20T06:52:52.206Z,1.83
2018-01-20T06:53:51.303Z,1.82
2018-01-20T06:54:51.289Z,1.84
2018-01-20T06:55:51.475Z,1.84
2018-01-20T06:56:52.188Z,1.84
2018-01-20T06:57:51.269Z,1.86
2018-01-20T06:58:51.606Z,1.83
2018-01-20T06:59:52.073Z,1.83
2018-01-20T07:00:51.501Z,1.86
2018-01-20T07:01:51.214Z,1.84
2018-01-20T07:02:53.228Z,1.8
2018-01-20T07:03:51.531Z,1.82
2018-01-20T07:04:51.497Z,1.82
2018-01-20T07:05:51.216Z,1.75
2018-01-20T07:06:52.261Z,1.79
2018-01-20T07:07:51.656Z,1.79
2018-01-20T07:08:51.482Z,1.83
2018-01-20T07:09:51.143Z,1.79
2018-01-20T07:10:51.302Z,1.8
2018-01-20T07:11:51.259Z,1.75
2018-01-20T07:12:51.575Z,1.76
2018-01-20T07:13:51.479Z,1.78
2018-01-20T07:14:38.646Z,1.79
2018-01-20T07:15:38.220Z,1.72
2018-01-20T07:17:22.670Z,1.82
2018-01-20T07:18:22.553Z,1.79
2018-01-20T07:19:22.380Z,1.77
2018-01-20T07:20:24.766Z,1.77
2018-01-20T07:21:09.581Z,1.81
2018-01-20T07:22:10.386Z,1.77
2018-01-20T07:23:09.357Z,1.78
2018-01-20T07:24:09.389Z,1.76
2018-01-20T07:25:10.111Z,1.78
2018-01-20T07:26:11.647Z,1.78
2018-01-20T07:27:09.691Z,1.78
2018-01-20T07:28:09.350Z,1.75
2018-01-20T07:29:09.480Z,1.74
2018-01-20T07:30:09.436Z,1.82
2018-01-20T07:31:09.533Z,1.72
2018-01-20T07:32:10.866Z,1.76
2018-01-20T07:33:09.392Z,1.79
2018-01-20T07:34:09.475Z,1.8
2018-01-20T07:35:09.770Z,1.78
2018-01-20T07:36:09.798Z,1.81
2018-01-20T07:37:10.534Z,1.79
2018-01-20T07:38:09.319Z,1.81
2018-01-20T07:39:09.400Z,1.8
2018-01-20T07:40:09.577Z,1.8
2018-01-20T07:41:09.628Z,1.81
2018-01-20T07:42:09.837Z,1.81
2018-01-20T07:43:10.040Z,1.82
2018-01-20T07:44:10.530Z,1.82
2018-01-20T07:45:10.070Z,1.82
2018-01-20T07:46:10.295Z,1.81
2018-01-20T07:47:10.359Z,1.83
2018-01-20T07:48:09.799Z,1.85
2018-01-20T07:49:10.170Z,1.88
2018-01-20T07:50:09.724Z,1.83
2018-01-20T07:51:09.665Z,1.8
2018-01-20T07:52:10.296Z,1.86
2018-01-20T07:53:29.996Z,1.9
2018-01-20T07:54:09.594Z,1.83
2018-01-20T07:55:10.987Z,1.86
2018-01-20T07:56:10.021Z,1.86
2018-01-20T07:57:09.759Z,1.86
2018-01-20T07:58:29.601Z,1.85
2018-01-20T07:59:21.859Z,1.87
2018-01-20T08:00:20.987Z,1.86
2018-01-20T08:01:20.839Z,1.87
2018-01-20T08:02:20.706Z,1.86
2018-01-20T08:03:20.829Z,1.85
2018-01-20T08:04:20.635Z,1.88
2018-01-20T08:05:20.849Z,1.85
2018-01-20T08:06:20.697Z,1.89
2018-01-20T08:07:20.636Z,1.89
2018-01-20T08:08:21.945Z,1.92
2018-01-20T08:09:21.448Z,1.89
2018-01-20T08:10:21.702Z,1.85
2018-01-20T08:11:20.727Z,1.85
2018-01-20T08:12:21.405Z,1.87
2018-01-20T08:13:20.671Z,1.93
2018-01-20T08:14:20.811Z,1.92
2018-01-20T08:15:21.605Z,1.92
2018-01-20T08:16:20.608Z,1.92
2018-01-20T08:17:20.932Z,1.94
2018-01-20T08:18:21.700Z,1.93
2018-01-20T08:19:20.891Z,1.96
2018-01-20T08:20:20.974Z,1.97
2018-01-20T08:21:21.636Z,1.97
2018-01-20T08:23:09.578Z,1.96
2018-01-20T08:24:07.971Z,1.96
2018-01-20T08:25:07.295Z,1.96
2018-01-20T08:26:07.237Z,1.98
2018-01-20T08:27:07.512Z,2.02
2018-01-20T08:28:07.497Z,2.05
2018-01-20T08:29:08.220Z,2.01
2018-01-20T08:30:08.040Z,2.01
2018-01-20T08:31:08.437Z,2.04
2018-01-20T08:32:07.988Z,2.08
2018-01-20T08:33:07.116Z,2.09
2018-01-20T08:34:07.499Z,2.11
2018-01-20T08:35:07.191Z,2.03
2018-01-20T08:36:08.082Z,2.05
2018-01-20T08:37:09.496Z,1.98
2018-01-20T08:38:07.682Z,2.07
2018-01-20T08:39:07.845Z,2.06
2018-01-20T08:40:07.925Z,2.04
2018-01-20T08:43:11.414Z,2.06
2018-01-20T08:44:07.353Z,2.09
2018-01-20T08:45:07.299Z,2.05
2018-01-20T08:46:08.339Z,2.05
2018-01-20T08:47:07.449Z,2.13
2018-01-20T08:48:08.140Z,2.14
2018-01-20T08:49:07.189Z,2.18
2018-01-20T08:50:07.185Z,2.11
2018-01-20T08:51:07.220Z,2.13
2018-01-20T08:52:07.417Z,2.14
2018-01-20T08:53:07.727Z,2.13
2018-01-20T08:54:08.511Z,2.14
2018-01-20T08:55:08.186Z,2.25
2018-01-20T08:56:09.990Z,2.24
2018-01-20T08:57:07.876Z,2.27
2018-01-20T08:58:06.045Z,2.25
2018-01-20T08:59:05.697Z,2.25
2018-01-20T09:00:13.476Z,2.23
2018-01-20T09:01:06.794Z,2.23
2018-01-20T09:02:05.460Z,2.27
2018-01-20T09:03:05.269Z,2.33
2018-01-20T09:04:05.870Z,2.33
2018-01-20T09:05:07.115Z,2.35
2018-01-20T09:06:06.596Z,2.39
2018-01-20T09:07:06.266Z,2.3
2018-01-20T09:08:07.641Z,2.34
2018-01-20T09:09:07.907Z,2.26
2018-01-20T09:10:06.509Z,2.28
2018-01-20T09:11:07.246Z,2.16
2018-01-20T09:12:07.962Z,2.16
2018-01-20T09:13:07.794Z,2.19
2018-01-20T09:14:06.944Z,2.28
2018-01-20T09:15:07.130Z,2.28
2018-01-20T09:16:05.682Z,2.29
2018-01-20T09:17:08.192Z,2.29
2018-01-20T09:18:07.596Z,2.28
2018-01-20T09:19:07.703Z,2.26
2018-01-20T09:20:06.550Z,2.27
2018-01-20T09:21:06.933Z,2.3
2018-01-20T09:22:07.974Z,2.27
2018-01-20T09:23:06.787Z,2.28
2018-01-20T09:24:05.954Z,2.3
2018-01-20T09:25:05.708Z,2.22
2018-01-20T09:26:06.534Z,2.24
2018-01-20T09:27:08.330Z,2.33
2018-01-20T09:28:55.348Z,2.4
2018-01-20T09:29:00.303Z,2.39
2018-01-20T09:29:05.942Z,2.39
2018-01-20T09:29:13.234Z,2.41
2018-01-20T09:29:19.265Z,2.39
2018-01-20T09:29:25.772Z,2.4
2018-01-20T09:29:30.446Z,2.37
2018-01-20T09:29:35.928Z,2.38
2018-01-20T09:29:43.256Z,2.39
2018-01-20T09:29:48.885Z,2.38
2018-01-20T09:29:53.830Z,2.36
2018-01-20T09:29:58.952Z,2.35
2018-01-20T09:30:05.426Z,2.39
2018-01-20T09:30:13.696Z,2.44
2018-01-20T09:30:22.267Z,2.42
2018-01-20T09:30:28.278Z,2.42
2018-01-20T09:30:34.610Z,2.41
2018-01-20T09:30:45.952Z,2.41
2018-01-20T09:31:02.741Z,2.43
2018-01-20T09:31:22.763Z,2.43
2018-01-20T09:31:36.360Z,2.41
2018-01-20T09:31:49.486Z,2.44
2018-01-20T09:32:00.849Z,2.44
2018-01-20T09:32:10.127Z,2.42
2018-01-20T09:32:17.131Z,2.39
2018-01-20T09:32:24.708Z,2.44
2018-01-20T09:32:30.480Z,2.41
2018-01-20T09:32:35.272Z,2.39
2018-01-20T09:32:40.153Z,2.35
2018-01-20T09:32:46.809Z,2.3
2018-01-20T09:32:52.056Z,2.33
2018-01-20T09:32:58.573Z,2.35
2018-01-20T09:33:04.956Z,2.4
2018-01-20T09:33:10.322Z,2.36
2018-01-20T09:33:17.993Z,2.34
2018-01-20T09:33:23.387Z,2.33
2018-01-20T09:33:29.179Z,2.28
2018-01-20T09:33:34.139Z,2.31
2018-01-20T09:33:40.007Z,2.26
2018-01-20T09:33:46.496Z,2.3
2018-01-20T09:33:54.682Z,2.31
2018-01-20T09:34:00.743Z,2.3
2018-01-20T09:34:07.501Z,2.31
2018-01-20T09:34:13.329Z,2.28
2018-01-20T09:34:18.337Z,2.27
2018-01-20T09:34:23.480Z,2.27
2018-01-20T09:34:29.846Z,2.3
2018-01-20T09:34:35.695Z,2.31
2018-01-20T09:34:40.356Z,2.32
2018-01-20T09:34:51.012Z,2.32
2018-01-20T09:35:15.267Z,2.34
2018-01-20T09:35:21.061Z,2.36
2018-01-20T09:35:27.142Z,2.37
2018-01-20T09:35:34.421Z,2.34
2018-01-20T09:35:39.969Z,2.34
2018-01-20T09:35:48.267Z,2.35
2018-01-20T09:35:56.652Z,2.36
2018-01-20T09:36:03.702Z,2.39
2018-01-20T09:36:09.611Z,2.37
2018-01-20T09:37:05.936Z,2.47
2018-01-20T09:38:05.675Z,2.42
2018-01-20T09:39:08.654Z,2.46
2018-01-20T09:40:06.031Z,2.46
2018-01-20T09:41:05.748Z,2.44
2018-01-20T09:42:06.065Z,2.4
2018-01-20T09:43:05.727Z,2.43
2018-01-20T09:44:05.741Z,2.42
2018-01-20T09:45:05.675Z,2.43
2018-01-20T09:46:05.854Z,2.49
2018-01-20T09:47:05.874Z,2.52
2018-01-20T09:48:05.678Z,2.52
2018-01-20T09:49:05.768Z,2.52
2018-01-20T09:50:05.757Z,2.56
2018-01-20T09:51:05.780Z,2.48
2018-01-20T09:52:05.787Z,2.56
2018-01-20T09:53:05.733Z,2.57
2018-01-20T09:54:05.711Z,2.6
2018-01-20T09:55:05.991Z,2.58
2018-01-20T09:56:06.028Z,2.63
2018-01-20T09:57:06.107Z,2.66
2018-01-20T09:58:06.043Z,2.64
2018-01-20T09:59:05.980Z,2.66
2018-01-20T10:00:05.699Z,2.58
2018-01-20T10:01:05.731Z,2.6
2018-01-20T10:02:06.898Z,2.58
2018-01-20T10:03:06.004Z,2.62
2018-01-20T10:04:05.681Z,2.56
2018-01-20T10:05:10.478Z,2.6
2018-01-20T10:06:05.867Z,2.62
2018-01-20T10:07:05.862Z,2.49
2018-01-20T10:08:05.994Z,2.49
2018-01-20T10:09:04.793Z,2.42
2018-01-20T10:10:07.849Z,2.52
2018-01-20T10:11:04.883Z,2.45
2018-01-20T10:12:16.636Z,2.46
2018-01-20T10:13:04.853Z,2.5
2018-01-20T10:14:04.692Z,2.48
2018-01-20T10:15:04.803Z,2.53
2018-01-20T10:16:04.728Z,2.34
2018-01-20T10:17:04.702Z,2.36
2018-01-20T10:18:04.812Z,2.4
2018-01-20T10:19:04.910Z,2.42
2018-01-20T10:20:04.846Z,2.45
2018-01-20T10:21:04.769Z,2.41
2018-01-20T10:22:04.773Z,2.38
2018-01-20T10:23:04.833Z,2.41
2018-01-20T10:24:04.989Z,2.47
2018-01-20T10:25:04.794Z,2.46
2018-01-20T10:26:04.778Z,2.49
2018-01-20T10:27:04.799Z,2.51
2018-01-20T10:28:04.766Z,2.54
2018-01-20T10:29:04.947Z,2.44
2018-01-20T10:30:04.749Z,2.39
2018-01-20T10:31:04.873Z,2.4
2018-01-20T10:32:04.846Z,2.42
2018-01-20T10:33:05.019Z,2.39
2018-01-20T10:34:04.962Z,2.44
2018-01-20T10:35:04.904Z,2.43
2018-01-20T10:36:04.783Z,2.42
2018-01-20T10:37:04.930Z,2.45
2018-01-20T10:38:06.458Z,2.44
2018-01-20T10:39:05.686Z,2.43
2018-01-20T10:40:04.865Z,2.44
2018-01-20T10:41:04.804Z,2.41
2018-01-20T10:42:04.980Z,2.46
2018-01-20T10:43:04.902Z,2.44
2018-01-20T10:44:04.875Z,2.48
2018-01-20T10:45:04.798Z,2.51
2018-01-20T10:46:05.040Z,2.55
2018-01-20T10:47:04.806Z,2.52
2018-01-20T10:48:04.941Z,2.45
2018-01-20T10:49:05.032Z,2.46
2018-01-20T10:50:04.841Z,2.53
2018-01-20T10:51:04.868Z,2.52
2018-01-20T10:52:04.918Z,2.5
2018-01-20T10:53:04.850Z,2.54
2018-01-20T10:54:04.857Z,2.54
2018-01-20T10:55:04.977Z,2.58
2018-01-20T10:56:04.904Z,2.52
2018-01-20T10:57:05.061Z,2.63
2018-01-20T10:58:05.028Z,2.64
2018-01-20T10:59:04.836Z,2.62
2018-01-20T11:00:05.465Z,2.61
2018-01-20T11:01:05.006Z,2.62
2018-01-20T11:02:04.855Z,2.55
2018-01-20T11:03:05.000Z,2.69
2018-01-20T11:04:05.140Z,2.66
2018-01-20T11:05:05.150Z,2.67
2018-01-20T11:06:04.732Z,2.66
2018-01-20T11:07:04.798Z,2.71
2018-01-20T11:08:04.890Z,2.71
2018-01-20T11:09:05.034Z,2.74
2018-01-20T11:10:05.029Z,2.75
2018-01-20T11:11:04.977Z,2.81
2018-01-20T11:12:04.966Z,2.76
2018-01-20T11:13:04.923Z,2.73
2018-01-20T11:14:04.952Z,2.72
2018-01-20T11:15:05.002Z,2.64
2018-01-20T11:16:05.178Z,2.72
2018-01-20T11:17:04.935Z,2.78
2018-01-20T11:18:04.954Z,2.7
2018-01-20T11:19:05.073Z,2.71
2018-01-20T11:20:05.076Z,2.68
2018-01-20T11:21:05.190Z,2.75
2018-01-20T11:22:05.004Z,2.83
2018-01-20T11:23:05.066Z,2.9
2018-01-20T11:24:05.176Z,2.83
2018-01-20T11:25:04.961Z,2.8
2018-01-20T11:26:04.988Z,2.89
2018-01-20T11:27:05.070Z,2.84
2018-01-20T11:28:05.113Z,2.86
2018-01-20T11:29:05.108Z,2.85
2018-01-20T11:30:04.884Z,2.93
2018-01-20T11:31:05.050Z,2.9
2018-01-20T11:32:05.029Z,2.88
2018-01-20T11:33:05.039Z,2.96
2018-01-20T11:34:05.090Z,2.92
2018-01-20T11:35:04.994Z,2.96
2018-01-20T11:36:05.387Z,2.95
2018-01-20T11:37:05.073Z,2.91
2018-01-20T11:38:05.042Z,2.95
2018-01-20T11:39:05.177Z,2.95
2018-01-20T11:40:05.007Z,2.88
2018-01-20T11:41:05.217Z,2.87
2018-01-20T11:42:05.155Z,2.89
2018-01-20T11:43:05.207Z,2.9
2018-01-20T11:44:06.998Z,3.01
2018-01-20T11:45:06.779Z,2.94
2018-01-20T11:46:05.168Z,2.98
2018-01-20T11:47:05.325Z,3.03
2018-01-20T11:48:05.227Z,2.95
2018-01-20T11:49:05.383Z,3
2018-01-20T11:50:05.206Z,2.98
2018-01-20T11:51:05.705Z,3
2018-01-20T11:52:05.486Z,3.04
2018-01-20T11:53:05.021Z,3.02
2018-01-20T11:54:05.177Z,3.06
2018-01-20T11:55:05.031Z,3.08
2018-01-20T11:56:05.315Z,3.09
2018-01-20T11:57:05.341Z,3.06
2018-01-20T11:58:06.038Z,3.03
2018-01-20T11:59:05.245Z,3.13
2018-01-20T12:00:05.108Z,3.02
2018-01-20T12:01:05.943Z,3.07
2018-01-20T12:02:06.247Z,3.05
2018-01-20T12:03:04.921Z,3.01
2018-01-20T12:04:04.930Z,3.05
2018-01-20T12:05:05.044Z,2.99
2018-01-20T12:06:05.108Z,3.08
2018-01-20T12:07:05.100Z,3.1
2018-01-20T12:08:05.249Z,3.09
2018-01-20T12:09:04.950Z,3.08
2018-01-20T12:10:04.932Z,3.08
2018-01-20T12:11:05.223Z,3.08
2018-01-20T12:12:04.985Z,3.13
2018-01-20T12:13:05.017Z,3.09
2018-01-20T12:14:05.188Z,3.07
2018-01-20T12:15:05.047Z,2.98
2018-01-20T12:16:05.054Z,3.12
2018-01-20T12:17:05.515Z,3.12
2018-01-20T12:18:05.230Z,3.07
2018-01-20T12:19:05.055Z,3.03
2018-01-20T12:20:05.041Z,3.02
2018-01-20T12:21:04.943Z,3.09
2018-01-20T12:22:04.970Z,3.1
2018-01-20T12:23:05.099Z,3.08
2018-01-20T12:24:05.051Z,3.06
2018-01-20T12:25:05.019Z,3.15
2018-01-20T12:26:05.064Z,3.22
2018-01-20T12:27:04.986Z,3.12
2018-01-20T12:28:05.006Z,3.1
2018-01-20T12:29:05.020Z,3
2018-01-20T12:30:04.904Z,3.05
2018-01-20T12:31:04.954Z,3.04
2018-01-20T12:32:04.971Z,3
2018-01-20T12:33:05.027Z,3.03
2018-01-20T12:34:05.172Z,3.06
2018-01-20T12:35:05.043Z,3.03